Oyster Creek — WDF6802 — position and weather

sailwx.info

Track history (hours):
 
Tides and Currents Weather Stations Pressure Air Temp Water Temp Dewpoint Dewpoint Depression Visibility Wind Speed Wind Dir Waves Ship Positions

Oyster Creek

Owner: Vane Line Bunkering, Inc, Philadelphia, PA. More information available from US FCC via Universal Licensing System and Coast Guard Vessel Documentation Center.

Last reported at 2017-Oct-18 22:30 UTC. Time now 2017-Oct-18 22:38 UTC.
Position N 40°40' W 074°01'.

Length 30 m; draft 4 m.

Type: Tug. MMSI: 367477980.

Date/timePositionNaut miles runAvg speedWind from/ knotsBaromVisibWave heightAir tempDewpointWater temp
2017-Oct-18 22:30N 40°40' W 074°01'0 0.0
2017-Oct-18 21:59N 40°40' W 074°01'0 0.0
2017-Oct-18 21:29N 40°40' W 074°01'0 0.0
2017-Oct-18 20:59N 40°40' W 074°01'0 0.0
2017-Oct-18 20:29N 40°40' W 074°01'0 0.0
2017-Oct-18 20:00N 40°40' W 074°01'0 0.0
2017-Oct-18 19:29N 40°40' W 074°01'0 0.0
2017-Oct-18 19:00N 40°40' W 074°01'0 0.0
2017-Oct-18 18:31N 40°40' W 074°01'3 5.9
2017-Oct-18 18:01N 40°39' W 074°04'4 7.1
2017-Oct-18 17:30N 40°39' W 074°09'2 4.0
2017-Oct-18 17:00N 40°41' W 074°09'3 5.3
2017-Oct-18 16:30N 40°39' W 074°09'4 8.8
2017-Oct-18 16:00N 40°39' W 074°03'2 4.9
2017-Oct-18 15:30N 40°40' W 074°00'0 0.0
2017-Oct-18 15:00N 40°40' W 074°00'0 0.0
2017-Oct-18 14:00N 40°40' W 074°00'0 0.0
2017-Oct-18 13:30N 40°40' W 074°00'0 0.0
2017-Oct-18 13:00N 40°40' W 074°00'1 1.2
2017-Oct-18 12:31N 40°40' W 074°01'4 8.6
2017-Oct-18 12:01N 40°39' W 074°06'3 5.6
2017-Oct-18 11:30N 40°41' W 074°09'0 0.6
2017-Oct-18 11:01N 40°41' W 074°09'0 0.5
2017-Oct-18 10:25N 40°41' W 074°09'0 0.0
2017-Oct-18 09:55N 40°41' W 074°09'0 0.0
2017-Oct-18 09:22N 40°41' W 074°09'0 0.0
2017-Oct-18 08:58N 40°41' W 074°09'0 0.3
2017-Oct-18 08:31N 40°41' W 074°09'2 4.0
2017-Oct-18 08:00N 40°39' W 074°09'2 4.0
2017-Oct-18 07:30N 40°39' W 074°06'0 0.6
2017-Oct-18 07:00N 40°39' W 074°06'0 0.0
2017-Oct-18 06:18N 40°39' W 074°06'1 3.6
2017-Oct-18 06:01N 40°39' W 074°04'3 6.8
2017-Oct-18 05:31N 40°40' W 074°00'2 3.1
2017-Oct-18 05:01N 40°39' W 074°02'3 5.2
2017-Oct-18 04:31N 40°39' W 074°05'0 0.0
2017-Oct-18 04:01N 40°39' W 074°05'1 1.7
2017-Oct-18 03:31N 40°40' W 074°04'0 0.0
2017-Oct-18 03:01N 40°40' W 074°04'0 0.0
2017-Oct-18 02:30N 40°40' W 074°04'0 0.0
2017-Oct-18 02:01N 40°40' W 074°04'0 0.0
2017-Oct-18 01:31N 40°40' W 074°04'0 0.0
2017-Oct-18 01:01N 40°40' W 074°04'1 2.1
2017-Oct-18 00:31N 40°39' W 074°05'1 1.5
2017-Oct-18 00:01N 40°39' W 074°06'2 3.3
2017-Oct-17 23:31N 40°40' W 074°04'0 0.0
2017-Oct-17 23:01N 40°40' W 074°05'0 0.9
2017-Oct-17 22:31N 40°40' W 074°04'1 1.8
2017-Oct-17 22:01N 40°39' W 074°05'2 4.6
2017-Oct-17 21:31N 40°39' W 074°02'2 4.2
2017-Oct-17 21:00N 40°40' W 074°00'0 0.0
2017-Oct-17 20:30N 40°40' W 074°00'0 0.0
2017-Oct-17 20:00N 40°40' W 074°00'0 0.0
2017-Oct-17 19:30N 40°40' W 074°00'2 3.4
2017-Oct-17 19:01N 40°39' W 074°02'3 4.9
2017-Oct-17 18:29N 40°40' W 074°05'0 0.0
2017-Oct-17 18:00N 40°40' W 074°05'3 6.8
2017-Oct-17 17:31N 40°40' W 074°00'1 1.9
2017-Oct-17 17:01N 40°40' W 074°02'510.0
2017-Oct-17 16:31N 40°45' W 074°01'1 1.7
2017-Oct-17 16:00N 40°46' W 073°60'2 3.7
2017-Oct-17 15:31N 40°44' W 074°01'4 7.6
2017-Oct-17 15:00N 40°41' W 074°02'1 2.3
2017-Oct-17 14:28N 40°40' W 074°00'0 0.0
2017-Oct-17 13:58N 40°40' W 074°00'0 0.0
2017-Oct-17 13:28N 40°40' W 074°00'0 0.6
2017-Oct-17 13:00N 40°40' W 074°00'3 5.8
2017-Oct-17 12:30N 40°43' W 074°02'4 7.1
2017-Oct-17 12:00N 40°46' W 073°60'0 0.0
2017-Oct-17 11:30N 40°46' W 073°60'0 0.5
2017-Oct-17 11:00N 40°46' W 074°00'0 0.1
2017-Oct-17 10:30N 40°46' W 074°00'1 2.3
2017-Oct-17 10:00N 40°45' W 074°01'4 8.7
2017-Oct-17 09:31N 40°41' W 074°02'1 2.2
2017-Oct-17 09:00N 40°40' W 074°01'0 0.0
2017-Oct-17 08:30N 40°40' W 074°01'0 0.0
2017-Oct-17 08:00N 40°40' W 074°01'0 0.0
2017-Oct-17 07:30N 40°40' W 074°01'0 0.0
2017-Oct-17 07:00N 40°40' W 074°01'3 5.1
2017-Oct-17 06:31N 40°39' W 074°03'3 5.4
2017-Oct-17 06:00N 40°39' W 074°07'0 0.1
2017-Oct-17 05:30N 40°39' W 074°07'0 0.1
2017-Oct-17 03:16N 40°39' W 074°07'0 0.0
2017-Oct-17 02:52N 40°39' W 074°07'2 5.0
2017-Oct-17 02:31N 40°39' W 074°05'4 8.4
2017-Oct-17 02:00N 40°41' W 074°00'0 0.2
2017-Oct-17 01:30N 40°41' W 074°00'2 3.1
2017-Oct-17 01:00N 40°40' W 074°01'1 1.5
2017-Oct-17 00:30N 40°40' W 074°00'4 7.5
2017-Oct-17 00:01N 40°39' W 074°05'4 7.0
2017-Oct-16 23:30N 40°38' W 074°10'1 3.0
2017-Oct-16 23:00N 40°39' W 074°08'0 0.9
2017-Oct-16 22:30N 40°39' W 074°07'2 4.2
2017-Oct-16 22:00N 40°39' W 074°04'4 8.0
2017-Oct-16 21:30N 40°43' W 074°02'3 6.7
2017-Oct-16 21:00N 40°46' W 074°00'0 0.0
2017-Oct-16 20:27N 40°46' W 074°00'0 0.0
2017-Oct-16 20:00N 40°46' W 074°00'0 0.0
2017-Oct-16 19:30N 40°46' W 074°00'0 0.0
2017-Oct-16 19:00N 40°46' W 074°00'0 0.0
2017-Oct-16 18:30N 40°46' W 074°00'0 0.1
2017-Oct-16 18:00N 40°46' W 074°00'0 0.1
2017-Oct-16 17:18N 40°46' W 074°00'0 0.0
2017-Oct-16 16:57N 40°46' W 074°00'0 0.0
2017-Oct-16 16:30N 40°46' W 074°00'0 0.0
2017-Oct-16 16:00N 40°46' W 074°00'0 0.0
2017-Oct-16 15:30N 40°46' W 074°00'0 0.0
2017-Oct-16 15:00N 40°46' W 074°00'4 4.1
2017-Oct-16 14:00N 40°42' W 074°02'4 7.3
2017-Oct-16 13:30N 40°39' W 074°05'0 0.7
2017-Oct-16 13:00N 40°39' W 074°05'0 0.0
2017-Oct-16 12:31N 40°39' W 074°05'1 1.4
2017-Oct-16 11:59N 40°39' W 074°06'0 0.0
2017-Oct-16 11:26N 40°39' W 074°06'0 0.0
2017-Oct-16 10:59N 40°39' W 074°06'0 0.0
2017-Oct-16 10:29N 40°39' W 074°06'0 0.0
2017-Oct-16 09:59N 40°39' W 074°06'0 0.0
2017-Oct-16 09:29N 40°39' W 074°06'0 0.0
2017-Oct-16 08:59N 40°39' W 074°06'0 0.0
2017-Oct-16 08:29N 40°39' W 074°06'0 0.0
2017-Oct-16 07:59N 40°39' W 074°06'0 0.0
2017-Oct-16 07:29N 40°39' W 074°06'0 0.0
2017-Oct-16 06:59N 40°39' W 074°06'0 0.0
2017-Oct-16 06:29N 40°39' W 074°06'0 0.0
2017-Oct-16 05:59N 40°39' W 074°06'1 1.6
2017-Oct-16 05:30N 40°39' W 074°05'1 2.0
2017-Oct-16 05:00N 40°39' W 074°06'2 3.8
2017-Oct-16 04:30N 40°40' W 074°09'1 1.4
2017-Oct-16 04:00N 40°40' W 074°08'0 0.5
2017-Oct-16 03:30N 40°40' W 074°08'0 0.0
2017-Oct-16 03:00N 40°40' W 074°08'0 0.0
2017-Oct-16 02:30N 40°40' W 074°08'2 3.7
2017-Oct-16 02:00N 40°39' W 074°08'4 7.4
2017-Oct-16 01:30N 40°39' W 074°03'3 4.9
2017-Oct-16 00:58N 40°40' W 074°00'0 0.0
2017-Oct-16 00:28N 40°40' W 074°00'0 0.0
2017-Oct-15 23:58N 40°40' W 074°00'0 0.0
2017-Oct-15 23:28N 40°40' W 074°00'0 0.0
2017-Oct-15 22:58N 40°40' W 074°00'0 0.0
2017-Oct-15 22:30N 40°40' W 074°00'4 7.6
2017-Oct-15 22:00N 40°39' W 074°05'3 5.1
2017-Oct-15 21:30N 40°39' W 074°08'2 3.4
2017-Oct-15 21:00N 40°40' W 074°08'0 0.5
2017-Oct-15 20:30N 40°40' W 074°08'1 1.4
2017-Oct-15 20:00N 40°40' W 074°09'0 0.6
2017-Oct-15 19:30N 40°39' W 074°09'2 3.9
2017-Oct-15 19:01N 40°39' W 074°06'4 8.0
2017-Oct-15 18:31N 40°41' W 074°02'5 9.2
2017-Oct-15 18:00N 40°46' W 074°01'1 0.8
2017-Oct-15 17:20N 40°46' W 073°60'0 0.3
2017-Oct-15 16:59N 40°46' W 073°60'0 0.0
2017-Oct-15 16:29N 40°46' W 073°60'0 0.0
2017-Oct-15 15:59N 40°46' W 073°60'0 0.0
2017-Oct-15 15:29N 40°46' W 073°60'0 0.0
2017-Oct-15 14:56N 40°46' W 073°60'0 0.0
2017-Oct-15 13:59N 40°46' W 073°60'0 0.0
2017-Oct-15 13:26N 40°46' W 073°60'0 0.0
2017-Oct-15 12:59N 40°46' W 073°60'0 0.0
2017-Oct-15 12:29N 40°46' W 073°60'0 0.0
2017-Oct-15 12:00N 40°46' W 073°60'0 0.2
2017-Oct-15 11:30N 40°46' W 074°00'3 5.6
2017-Oct-15 11:00N 40°43' W 074°01'4 8.5
2017-Oct-15 10:31N 40°40' W 074°04'1 2.2
2017-Oct-15 10:00N 40°39' W 074°05'1 1.5
2017-Oct-15 09:30N 40°39' W 074°06'0 0.0
2017-Oct-15 09:00N 40°39' W 074°06'0 0.0
2017-Oct-15 08:30N 40°39' W 074°06'0 0.0
2017-Oct-15 08:00N 40°39' W 074°06'0 0.0
2017-Oct-15 07:30N 40°39' W 074°06'0 0.0
2017-Oct-15 07:00N 40°39' W 074°06'0 0.0
2017-Oct-15 06:30N 40°39' W 074°06'2 4.3
2017-Oct-15 06:00N 40°39' W 074°09'3 5.6
2017-Oct-15 05:31N 40°38' W 074°12'0 0.4
2017-Oct-15 05:00N 40°38' W 074°12'3 5.5
2017-Oct-15 04:30N 40°39' W 074°08'4 7.3
2017-Oct-15 04:00N 40°39' W 074°04'3 5.2
2017-Oct-15 03:30N 40°40' W 074°01'0 0.2
2017-Oct-15 03:00N 40°40' W 074°00'0 0.0
2017-Oct-15 02:30N 40°40' W 074°00'0 0.5
2017-Oct-15 02:00N 40°40' W 074°00'2 4.4
2017-Oct-15 01:31N 40°39' W 074°02'2 4.7
2017-Oct-15 01:01N 40°39' W 074°05'0 0.0
2017-Oct-15 00:31N 40°39' W 074°05'0 0.0
2017-Oct-15 00:00N 40°39' W 074°05'0 0.0
2017-Oct-14 23:30N 40°39' W 074°05'4 7.1
2017-Oct-14 23:00N 40°40' W 074°01'0 0.8
2017-Oct-14 22:31N 40°40' W 074°00'0 0.0
2017-Oct-14 22:00N 40°40' W 074°00'0 0.0
2017-Oct-14 21:30N 40°40' W 074°00'3 5.3
2017-Oct-14 21:00N 40°39' W 074°04'3 5.2
2017-Oct-14 20:30N 40°39' W 074°07'3 5.5
2017-Oct-14 20:00N 40°41' W 074°09'0 0.4
2017-Oct-14 19:30N 40°41' W 074°09'0 0.5
2017-Oct-14 18:53N 40°41' W 074°09'0 0.0
2017-Oct-14 18:29N 40°41' W 074°09'0 0.0
2017-Oct-14 17:59N 40°41' W 074°09'0 0.0
2017-Oct-14 17:29N 40°41' W 074°09'0 0.0
2017-Oct-14 16:59N 40°41' W 074°09'0 0.0
2017-Oct-14 16:26N 40°41' W 074°09'0 0.0
2017-Oct-14 15:59N 40°41' W 074°09'0 0.0
2017-Oct-14 15:26N 40°41' W 074°09'0 0.0
2017-Oct-14 14:56N 40°41' W 074°09'0 0.0
2017-Oct-14 14:23N 40°41' W 074°09'0 0.0
2017-Oct-14 13:59N 40°41' W 074°09'0 0.0
2017-Oct-14 13:29N 40°41' W 074°09'0 0.0
2017-Oct-14 12:59N 40°41' W 074°09'0 0.0
2017-Oct-14 12:26N 40°41' W 074°09'0 0.0
2017-Oct-14 11:59N 40°41' W 074°09'0 0.0
2017-Oct-14 11:29N 40°41' W 074°09'0 0.0
2017-Oct-14 10:53N 40°41' W 074°09'0 0.0
2017-Oct-14 10:26N 40°41' W 074°09'0 0.0
2017-Oct-14 09:56N 40°41' W 074°09'0 0.0
2017-Oct-14 09:29N 40°41' W 074°09'0 0.0
2017-Oct-14 08:59N 40°41' W 074°09'0 0.0
2017-Oct-14 08:26N 40°41' W 074°09'0 0.0
2017-Oct-14 07:59N 40°41' W 074°09'0 0.0
2017-Oct-14 07:29N 40°41' W 074°09'0 0.0
2017-Oct-14 06:59N 40°41' W 074°09'0 0.0
2017-Oct-14 06:20N 40°41' W 074°09'0 0.0
2017-Oct-14 05:59N 40°41' W 074°09'0 0.0
2017-Oct-14 05:29N 40°41' W 074°09'0 0.0
2017-Oct-14 04:59N 40°41' W 074°09'0 0.0
2017-Oct-14 04:29N 40°41' W 074°09'0 0.0
2017-Oct-14 03:59N 40°41' W 074°09'0 0.0
2017-Oct-14 03:11N 40°41' W 074°09'0 0.0
2017-Oct-14 02:53N 40°41' W 074°09'0 0.0
2017-Oct-14 02:23N 40°41' W 074°09'0 0.0
2017-Oct-14 01:59N 40°41' W 074°09'0 0.0
2017-Oct-14 01:29N 40°41' W 074°09'0 0.0
2017-Oct-14 00:59N 40°41' W 074°09'0 0.3
2017-Oct-14 00:31N 40°41' W 074°09'2 3.6
2017-Oct-14 00:00N 40°40' W 074°09'2 3.4
2017-Oct-13 23:30N 40°39' W 074°06'0 0.2
2017-Oct-13 23:00N 40°39' W 074°07'0 0.0
2017-Oct-13 22:31N 40°39' W 074°07'1 1.6
2017-Oct-13 22:00N 40°39' W 074°05'0 0.7
2017-Oct-13 21:24N 40°39' W 074°06'0 0.0
2017-Oct-13 21:00N 40°39' W 074°06'0 0.0
2017-Oct-13 20:27N 40°39' W 074°06'2 4.1
2017-Oct-13 20:00N 40°39' W 074°03'2 3.9
2017-Oct-13 19:30N 40°40' W 074°01'3 6.1
2017-Oct-13 19:01N 40°39' W 074°05'1 1.2
2017-Oct-13 18:27N 40°39' W 074°06'0 0.0
2017-Oct-13 18:00N 40°39' W 074°06'0 0.0
2017-Oct-13 17:30N 40°39' W 074°06'0 0.0
2017-Oct-13 17:00N 40°39' W 074°06'0 0.8
2017-Oct-13 16:30N 40°39' W 074°05'0 0.0
2017-Oct-13 16:00N 40°39' W 074°05'0 0.0
2017-Oct-13 14:55N 40°39' W 074°05'3 7.3
2017-Oct-13 14:30N 40°39' W 074°02'1 2.4
2017-Oct-13 13:59N 40°40' W 074°00'0 0.0
2017-Oct-13 13:22N 40°40' W 074°00'0 0.0
2017-Oct-13 12:58N 40°40' W 074°00'0 0.0
2017-Oct-13 12:28N 40°40' W 074°00'0 0.1
2017-Oct-13 11:58N 40°40' W 074°00'0 0.0
2017-Oct-13 11:28N 40°40' W 074°00'0 0.0
2017-Oct-13 10:52N 40°40' W 074°00'0 0.0
2017-Oct-13 10:28N 40°40' W 074°00'0 0.0
2017-Oct-13 09:58N 40°40' W 074°00'0 0.0
2017-Oct-13 09:28N 40°40' W 074°00'0 0.0
2017-Oct-13 08:58N 40°40' W 074°00'0 0.0
2017-Oct-13 08:28N 40°40' W 074°00'1 2.2
2017-Oct-13 08:00N 40°40' W 074°01'4 8.0
2017-Oct-13 07:30N 40°39' W 074°07'0 0.1
2017-Oct-13 07:00N 40°39' W 074°07'0 0.3
2017-Oct-13 06:30N 40°39' W 074°06'2 4.0
2017-Oct-13 06:00N 40°40' W 074°04'0 0.0
2017-Oct-13 05:29N 40°40' W 074°04'0 0.0
2017-Oct-13 04:59N 40°40' W 074°04'0 0.1
2017-Oct-13 04:30N 40°40' W 074°04'1 1.8
2017-Oct-13 04:00N 40°40' W 074°03'4 8.8
2017-Oct-13 03:30N 40°44' W 074°01'2 5.0
2017-Oct-13 03:00N 40°46' W 073°60'0 0.0
2017-Oct-13 02:25N 40°46' W 073°60'0 0.2
2017-Oct-13 01:55N 40°46' W 073°60'0 0.2
2017-Oct-13 01:28N 40°46' W 073°60'0 0.0
2017-Oct-13 00:55N 40°46' W 073°60'0 0.0
2017-Oct-13 00:22N 40°46' W 073°60'0 0.0
2017-Oct-12 23:55N 40°46' W 073°60'0 0.0
2017-Oct-12 23:28N 40°46' W 073°60'0 0.0
2017-Oct-12 22:55N 40°46' W 073°60'0 0.0
2017-Oct-12 22:28N 40°46' W 073°60'0 0.0
2017-Oct-12 21:52N 40°46' W 073°60'0 0.0
2017-Oct-12 21:28N 40°46' W 073°60'0 0.0
2017-Oct-12 21:00N 40°46' W 073°60'1 1.1
2017-Oct-12 20:30N 40°46' W 074°00'4 8.1
2017-Oct-12 20:00N 40°42' W 074°02'4 8.0
2017-Oct-12 19:30N 40°39' W 074°05'1 1.5
2017-Oct-12 19:00N 40°39' W 074°06'0 0.0
2017-Oct-12 18:26N 40°39' W 074°06'0 1.0
2017-Oct-12 18:00N 40°39' W 074°07'0 0.1
2017-Oct-12 17:25N 40°39' W 074°07'0 0.0
2017-Oct-12 16:58N 40°39' W 074°07'1 1.8
2017-Oct-12 16:30N 40°39' W 074°06'0 0.7
2017-Oct-12 16:00N 40°39' W 074°06'0 0.9
2017-Oct-12 15:28N 40°39' W 074°07'0 0.0
2017-Oct-12 15:00N 40°39' W 074°07'2 3.0
2017-Oct-12 14:30N 40°40' W 074°08'1 1.7
2017-Oct-12 14:00N 40°41' W 074°09'2 4.4
2017-Oct-12 13:30N 40°39' W 074°09'2 3.6
2017-Oct-12 13:00N 40°39' W 074°06'1 1.5
2017-Oct-12 12:30N 40°39' W 074°07'3 5.2
2017-Oct-12 12:00N 40°41' W 074°09'1 0.8
2017-Oct-12 11:19N 40°41' W 074°09'0 0.0
2017-Oct-12 10:59N 40°41' W 074°09'1 1.1
2017-Oct-12 10:29N 40°41' W 074°09'2 3.9
2017-Oct-12 10:00N 40°39' W 074°09'4 7.3
2017-Oct-12 09:30N 40°39' W 074°04'3 6.1
2017-Oct-12 09:00N 40°40' W 074°00'2 4.7
2017-Oct-12 08:30N 40°39' W 074°03'1 2.9
2017-Oct-12 08:00N 40°40' W 074°05'0 0.0
2017-Oct-12 07:29N 40°40' W 074°05'0 0.0
2017-Oct-12 06:53N 40°40' W 074°05'2 4.0
2017-Oct-12 06:30N 40°39' W 074°06'1 2.1
2017-Oct-12 06:00N 40°39' W 074°07'0 0.0
2017-Oct-12 05:30N 40°39' W 074°07'2 3.1
2017-Oct-12 05:00N 40°39' W 074°05'0 0.0
2017-Oct-12 04:22N 40°39' W 074°05'0 0.0
2017-Oct-12 03:58N 40°39' W 074°05'0 0.0
2017-Oct-12 03:31N 40°39' W 074°05'0 0.0
2017-Oct-12 02:58N 40°39' W 074°05'0 0.1
2017-Oct-12 02:30N 40°39' W 074°05'0 0.2
2017-Oct-12 02:00N 40°39' W 074°05'0 0.1
2017-Oct-12 01:30N 40°39' W 074°05'1 2.1
2017-Oct-12 01:00N 40°39' W 074°06'2 4.0
2017-Oct-12 00:30N 40°40' W 074°08'0 0.2
2017-Oct-12 00:00N 40°40' W 074°08'1 1.7
2017-Oct-11 23:30N 40°41' W 074°09'0 0.4
2017-Oct-11 23:00N 40°41' W 074°09'0 0.0
2017-Oct-11 22:30N 40°41' W 074°09'0 0.0
2017-Oct-11 22:00N 40°41' W 074°09'0 0.0
2017-Oct-11 21:30N 40°41' W 074°09'1 1.7
2017-Oct-11 20:59N 40°40' W 074°08'2 4.6
2017-Oct-11 20:30N 40°39' W 074°06'0 0.7
2017-Oct-11 19:56N 40°39' W 074°06'0 0.0
2017-Oct-11 19:26N 40°39' W 074°06'0 0.0
2017-Oct-11 18:56N 40°39' W 074°06'0 0.0
2017-Oct-11 18:29N 40°39' W 074°06'0 0.0
2017-Oct-11 17:59N 40°39' W 074°06'0 0.0
2017-Oct-11 17:26N 40°39' W 074°06'0 0.0
2017-Oct-11 16:59N 40°39' W 074°06'2 0.1
2017-Oct-11 00:00N 40°40' W 074°05'0 0.0
2017-Oct-10 23:30N 40°40' W 074°05'0 0.0
2017-Oct-10 23:00N 40°40' W 074°05'0 0.0
2017-Oct-10 22:30N 40°40' W 074°05'0 0.0
2017-Oct-10 22:00N 40°40' W 074°05'0 0.0
2017-Oct-10 21:30N 40°40' W 074°05'0 0.0
2017-Oct-10 21:00N 40°40' W 074°05'0 0.0
2017-Oct-10 20:30N 40°40' W 074°05'0 0.0
2017-Oct-10 20:00N 40°40' W 074°05'0 0.0
2017-Oct-10 19:30N 40°40' W 074°05'0 0.0
2017-Oct-10 19:00N 40°40' W 074°05'0 0.0
2017-Oct-10 18:30N 40°40' W 074°05'1 2.3
2017-Oct-10 18:00N 40°40' W 074°04'1 1.5
2017-Oct-10 17:30N 40°40' W 074°03'2 3.0
2017-Oct-10 17:00N 40°39' W 074°04'1 2.7
2017-Oct-10 16:29N 40°39' W 074°06'0 0.0
2017-Oct-10 16:01N 40°39' W 074°06'0 0.5
2017-Oct-10 15:30N 40°39' W 074°06'3 5.1
2017-Oct-10 15:00N 40°40' W 074°03'2 2.1
2017-Oct-10 13:59N 40°40' W 074°00'0 0.0
2017-Oct-10 13:29N 40°40' W 074°00'0 0.0
2017-Oct-10 12:59N 40°40' W 074°00'0 0.0
2017-Oct-10 12:28N 40°40' W 074°00'0 0.0
2017-Oct-10 11:58N 40°40' W 074°00'0 0.0
2017-Oct-10 11:28N 40°40' W 074°00'0 0.0
2017-Oct-10 10:58N 40°40' W 074°00'0 0.0
2017-Oct-10 10:28N 40°40' W 074°00'2 3.4
2017-Oct-10 10:01N 40°39' W 074°02'2 3.5
2017-Oct-10 09:30N 40°38' W 074°04'0 0.9
2017-Oct-10 09:01N 40°38' W 074°04'2 3.5
2017-Oct-10 08:31N 40°39' W 074°06'0 0.1
2017-Oct-10 07:58N 40°39' W 074°06'0 0.0
2017-Oct-10 07:28N 40°39' W 074°06'0 0.0
2017-Oct-10 06:58N 40°39' W 074°06'0 0.0
2017-Oct-10 06:28N 40°39' W 074°06'0 0.0
2017-Oct-10 05:58N 40°39' W 074°06'0 0.0
2017-Oct-10 05:28N 40°39' W 074°06'0 0.0
2017-Oct-10 04:58N 40°39' W 074°06'0 0.0
2017-Oct-10 04:28N 40°39' W 074°06'0 0.0
2017-Oct-10 03:58N 40°39' W 074°06'0 0.0
2017-Oct-10 03:28N 40°39' W 074°06'0 0.0
2017-Oct-10 02:58N 40°39' W 074°06'0 0.0
2017-Oct-10 02:19N 40°39' W 074°06'0 0.0
2017-Oct-10 01:58N 40°39' W 074°06'0 0.0
2017-Oct-10 01:28N 40°39' W 074°06'0 0.0
2017-Oct-10 00:58N 40°39' W 074°06'2 3.6
2017-Oct-10 00:30N 40°38' W 074°04'0 0.2
2017-Oct-10 00:01N 40°38' W 074°04'1 1.9
2017-Oct-09 23:30N 40°39' W 074°04'1 2.1
2017-Oct-09 22:58N 40°40' W 074°04'0 0.0
2017-Oct-09 22:28N 40°40' W 074°04'0 0.0
2017-Oct-09 21:58N 40°40' W 074°04'0 0.0
2017-Oct-09 21:28N 40°40' W 074°04'0 0.0
2017-Oct-09 20:58N 40°40' W 074°04'0 0.0
2017-Oct-09 20:28N 40°40' W 074°04'0 0.0
2017-Oct-09 19:58N 40°40' W 074°04'0 0.0
2017-Oct-09 19:28N 40°40' W 074°04'0 0.0
2017-Oct-09 18:58N 40°40' W 074°04'0 0.0
2017-Oct-09 18:28N 40°40' W 074°04'0 0.0
2017-Oct-09 17:58N 40°40' W 074°04'0 0.5
2017-Oct-09 17:30N 40°40' W 074°04'2 4.1
2017-Oct-09 17:00N 40°39' W 074°06'1 1.2
2017-Oct-09 16:29N 40°39' W 074°06'0 0.2
2017-Oct-09 16:00N 40°39' W 074°06'3 5.3
2017-Oct-09 15:30N 40°40' W 074°03'2 3.6
2017-Oct-09 14:58N 40°40' W 074°00'0 0.0
2017-Oct-09 14:28N 40°40' W 074°00'0 0.0
2017-Oct-09 13:58N 40°40' W 074°00'0 0.0
2017-Oct-09 13:28N 40°40' W 074°00'1 1.7
2017-Oct-09 13:00N 40°40' W 074°01'1 1.6
2017-Oct-09 12:30N 40°40' W 074°00'4 7.5
2017-Oct-09 12:00N 40°40' W 074°05'0 0.1
2017-Oct-09 11:30N 40°40' W 074°05'0 0.0
2017-Oct-09 11:00N 40°40' W 074°05'0 0.0
2017-Oct-09 10:30N 40°40' W 074°05'0 0.0
2017-Oct-09 10:00N 40°40' W 074°05'0 0.0
2017-Oct-09 09:30N 40°40' W 074°05'0 0.0
2017-Oct-09 08:57N 40°40' W 074°05'0 0.0
2017-Oct-09 08:30N 40°40' W 074°05'0 0.0
2017-Oct-09 08:00N 40°40' W 074°05'0 0.0
2017-Oct-09 07:30N 40°40' W 074°05'0 0.0
2017-Oct-09 07:01N 40°40' W 074°05'3 6.6
2017-Oct-09 06:31N 40°40' W 074°01'1 1.2
2017-Oct-09 05:59N 40°40' W 074°00'0 0.1
2017-Oct-09 05:29N 40°40' W 074°00'0 0.1
2017-Oct-09 04:59N 40°40' W 074°00'0 0.0
2017-Oct-09 04:29N 40°40' W 074°00'0 0.1
2017-Oct-09 03:59N 40°40' W 074°00'1 2.0
2017-Oct-09 03:30N 40°40' W 074°01'4 8.1
2017-Oct-09 03:00N 40°39' W 074°06'1 1.8
2017-Oct-09 02:31N 40°39' W 074°05'4 7.6
2017-Oct-09 02:01N 40°41' W 074°01'1 1.5
2017-Oct-09 01:28N 40°41' W 074°00'0 0.0
2017-Oct-09 00:58N 40°41' W 074°00'0 0.0
2017-Oct-09 00:28N 40°41' W 074°00'0 0.0
2017-Oct-08 23:58N 40°41' W 074°00'0 0.0
2017-Oct-08 23:28N 40°41' W 074°00'0 0.0
2017-Oct-08 22:58N 40°41' W 074°00'  
Track history (hours):
 
Tides and Currents Weather Stations Pressure Air Temp Water Temp Dewpoint Dewpoint Depression Visibility Wind Speed Wind Dir Waves Ship Positions

Oyster Creek

Owner: Vane Line Bunkering, Inc, Philadelphia, PA. More information available from US FCC via Universal Licensing System and Coast Guard Vessel Documentation Center.

Last reported at 2017-Oct-18 22:30 UTC. Time now 2017-Oct-18 22:38 UTC.
Position N 40°40' W 074°01'.

Length 30 m; draft 4 m.

Type: Tug. MMSI: 367477980.

Date/timePositionNaut miles runAvg speedWind from/ knotsBaromVisibWave heightAir tempDewpointWater temp
2017-Oct-18 22:30N 40°40' W 074°01'0 0.0
2017-Oct-18 21:59N 40°40' W 074°01'0 0.0
2017-Oct-18 21:29N 40°40' W 074°01'0 0.0
2017-Oct-18 20:59N 40°40' W 074°01'0 0.0
2017-Oct-18 20:29N 40°40' W 074°01'0 0.0
2017-Oct-18 20:00N 40°40' W 074°01'0 0.0
2017-Oct-18 19:29N 40°40' W 074°01'0 0.0
2017-Oct-18 19:00N 40°40' W 074°01'0 0.0
2017-Oct-18 18:31N 40°40' W 074°01'3 5.9
2017-Oct-18 18:01N 40°39' W 074°04'4 7.1
2017-Oct-18 17:30N 40°39' W 074°09'2 4.0
2017-Oct-18 17:00N 40°41' W 074°09'3 5.3
2017-Oct-18 16:30N 40°39' W 074°09'4 8.8
2017-Oct-18 16:00N 40°39' W 074°03'2 4.9
2017-Oct-18 15:30N 40°40' W 074°00'0 0.0
2017-Oct-18 15:00N 40°40' W 074°00'0 0.0
2017-Oct-18 14:00N 40°40' W 074°00'0 0.0
2017-Oct-18 13:30N 40°40' W 074°00'0 0.0
2017-Oct-18 13:00N 40°40' W 074°00'1 1.2
2017-Oct-18 12:31N 40°40' W 074°01'4 8.6
2017-Oct-18 12:01N 40°39' W 074°06'3 5.6
2017-Oct-18 11:30N 40°41' W 074°09'0 0.6
2017-Oct-18 11:01N 40°41' W 074°09'0 0.5
2017-Oct-18 10:25N 40°41' W 074°09'0 0.0
2017-Oct-18 09:55N 40°41' W 074°09'0 0.0
2017-Oct-18 09:22N 40°41' W 074°09'0 0.0
2017-Oct-18 08:58N 40°41' W 074°09'0 0.3
2017-Oct-18 08:31N 40°41' W 074°09'2 4.0
2017-Oct-18 08:00N 40°39' W 074°09'2 4.0
2017-Oct-18 07:30N 40°39' W 074°06'0 0.6
2017-Oct-18 07:00N 40°39' W 074°06'0 0.0
2017-Oct-18 06:18N 40°39' W 074°06'1 3.6
2017-Oct-18 06:01N 40°39' W 074°04'3 6.8
2017-Oct-18 05:31N 40°40' W 074°00'2 3.1
2017-Oct-18 05:01N 40°39' W 074°02'3 5.2
2017-Oct-18 04:31N 40°39' W 074°05'0 0.0
2017-Oct-18 04:01N 40°39' W 074°05'1 1.7
2017-Oct-18 03:31N 40°40' W 074°04'0 0.0
2017-Oct-18 03:01N 40°40' W 074°04'0 0.0
2017-Oct-18 02:30N 40°40' W 074°04'0 0.0
2017-Oct-18 02:01N 40°40' W 074°04'0 0.0
2017-Oct-18 01:31N 40°40' W 074°04'0 0.0
2017-Oct-18 01:01N 40°40' W 074°04'1 2.1
2017-Oct-18 00:31N 40°39' W 074°05'1 1.5
2017-Oct-18 00:01N 40°39' W 074°06'2 3.3
2017-Oct-17 23:31N 40°40' W 074°04'0 0.0
2017-Oct-17 23:01N 40°40' W 074°05'0 0.9
2017-Oct-17 22:31N 40°40' W 074°04'1 1.8
2017-Oct-17 22:01N 40°39' W 074°05'2 4.6
2017-Oct-17 21:31N 40°39' W 074°02'2 4.2
2017-Oct-17 21:00N 40°40' W 074°00'0 0.0
2017-Oct-17 20:30N 40°40' W 074°00'0 0.0
2017-Oct-17 20:00N 40°40' W 074°00'0 0.0
2017-Oct-17 19:30N 40°40' W 074°00'2 3.4
2017-Oct-17 19:01N 40°39' W 074°02'3 4.9
2017-Oct-17 18:29N 40°40' W 074°05'0 0.0
2017-Oct-17 18:00N 40°40' W 074°05'3 6.8
2017-Oct-17 17:31N 40°40' W 074°00'1 1.9
2017-Oct-17 17:01N 40°40' W 074°02'510.0
2017-Oct-17 16:31N 40°45' W 074°01'1 1.7
2017-Oct-17 16:00N 40°46' W 073°60'2 3.7
2017-Oct-17 15:31N 40°44' W 074°01'4 7.6
2017-Oct-17 15:00N 40°41' W 074°02'1 2.3
2017-Oct-17 14:28N 40°40' W 074°00'0 0.0
2017-Oct-17 13:58N 40°40' W 074°00'0 0.0
2017-Oct-17 13:28N 40°40' W 074°00'0 0.6
2017-Oct-17 13:00N 40°40' W 074°00'3 5.8
2017-Oct-17 12:30N 40°43' W 074°02'4 7.1
2017-Oct-17 12:00N 40°46' W 073°60'0 0.0
2017-Oct-17 11:30N 40°46' W 073°60'0 0.5
2017-Oct-17 11:00N 40°46' W 074°00'0 0.1
2017-Oct-17 10:30N 40°46' W 074°00'1 2.3
2017-Oct-17 10:00N 40°45' W 074°01'4 8.7
2017-Oct-17 09:31N 40°41' W 074°02'1 2.2
2017-Oct-17 09:00N 40°40' W 074°01'0 0.0
2017-Oct-17 08:30N 40°40' W 074°01'0 0.0
2017-Oct-17 08:00N 40°40' W 074°01'0 0.0
2017-Oct-17 07:30N 40°40' W 074°01'0 0.0
2017-Oct-17 07:00N 40°40' W 074°01'3 5.1
2017-Oct-17 06:31N 40°39' W 074°03'3 5.4
2017-Oct-17 06:00N 40°39' W 074°07'0 0.1
2017-Oct-17 05:30N 40°39' W 074°07'0 0.1
2017-Oct-17 03:16N 40°39' W 074°07'0 0.0
2017-Oct-17 02:52N 40°39' W 074°07'2 5.0
2017-Oct-17 02:31N 40°39' W 074°05'4 8.4
2017-Oct-17 02:00N 40°41' W 074°00'0 0.2
2017-Oct-17 01:30N 40°41' W 074°00'2 3.1
2017-Oct-17 01:00N 40°40' W 074°01'1 1.5
2017-Oct-17 00:30N 40°40' W 074°00'4 7.5
2017-Oct-17 00:01N 40°39' W 074°05'4 7.0
2017-Oct-16 23:30N 40°38' W 074°10'1 3.0
2017-Oct-16 23:00N 40°39' W 074°08'0 0.9
2017-Oct-16 22:30N 40°39' W 074°07'2 4.2
2017-Oct-16 22:00N 40°39' W 074°04'4 8.0
2017-Oct-16 21:30N 40°43' W 074°02'3 6.7
2017-Oct-16 21:00N 40°46' W 074°00'0 0.0
2017-Oct-16 20:27N 40°46' W 074°00'0 0.0
2017-Oct-16 20:00N 40°46' W 074°00'0 0.0
2017-Oct-16 19:30N 40°46' W 074°00'0 0.0
2017-Oct-16 19:00N 40°46' W 074°00'0 0.0
2017-Oct-16 18:30N 40°46' W 074°00'0 0.1
2017-Oct-16 18:00N 40°46' W 074°00'0 0.1
2017-Oct-16 17:18N 40°46' W 074°00'0 0.0
2017-Oct-16 16:57N 40°46' W 074°00'0 0.0
2017-Oct-16 16:30N 40°46' W 074°00'0 0.0
2017-Oct-16 16:00N 40°46' W 074°00'0 0.0
2017-Oct-16 15:30N 40°46' W 074°00'0 0.0
2017-Oct-16 15:00N 40°46' W 074°00'4 4.1
2017-Oct-16 14:00N 40°42' W 074°02'4 7.3
2017-Oct-16 13:30N 40°39' W 074°05'0 0.7
2017-Oct-16 13:00N 40°39' W 074°05'0 0.0
2017-Oct-16 12:31N 40°39' W 074°05'1 1.4
2017-Oct-16 11:59N 40°39' W 074°06'0 0.0
2017-Oct-16 11:26N 40°39' W 074°06'0 0.0
2017-Oct-16 10:59N 40°39' W 074°06'0 0.0
2017-Oct-16 10:29N 40°39' W 074°06'0 0.0
2017-Oct-16 09:59N 40°39' W 074°06'0 0.0
2017-Oct-16 09:29N 40°39' W 074°06'0 0.0
2017-Oct-16 08:59N 40°39' W 074°06'0 0.0
2017-Oct-16 08:29N 40°39' W 074°06'0 0.0
2017-Oct-16 07:59N 40°39' W 074°06'0 0.0
2017-Oct-16 07:29N 40°39' W 074°06'0 0.0
2017-Oct-16 06:59N 40°39' W 074°06'0 0.0
2017-Oct-16 06:29N 40°39' W 074°06'0 0.0
2017-Oct-16 05:59N 40°39' W 074°06'1 1.6
2017-Oct-16 05:30N 40°39' W 074°05'1 2.0
2017-Oct-16 05:00N 40°39' W 074°06'2 3.8
2017-Oct-16 04:30N 40°40' W 074°09'1 1.4
2017-Oct-16 04:00N 40°40' W 074°08'0 0.5
2017-Oct-16 03:30N 40°40' W 074°08'0 0.0
2017-Oct-16 03:00N 40°40' W 074°08'0 0.0
2017-Oct-16 02:30N 40°40' W 074°08'2 3.7
2017-Oct-16 02:00N 40°39' W 074°08'4 7.4
2017-Oct-16 01:30N 40°39' W 074°03'3 4.9
2017-Oct-16 00:58N 40°40' W 074°00'0 0.0
2017-Oct-16 00:28N 40°40' W 074°00'0 0.0
2017-Oct-15 23:58N 40°40' W 074°00'0 0.0
2017-Oct-15 23:28N 40°40' W 074°00'0 0.0
2017-Oct-15 22:58N 40°40' W 074°00'0 0.0
2017-Oct-15 22:30N 40°40' W 074°00'4 7.6
2017-Oct-15 22:00N 40°39' W 074°05'3 5.1
2017-Oct-15 21:30N 40°39' W 074°08'2 3.4
2017-Oct-15 21:00N 40°40' W 074°08'0 0.5
2017-Oct-15 20:30N 40°40' W 074°08'1 1.4
2017-Oct-15 20:00N 40°40' W 074°09'0 0.6
2017-Oct-15 19:30N 40°39' W 074°09'2 3.9
2017-Oct-15 19:01N 40°39' W 074°06'4 8.0
2017-Oct-15 18:31N 40°41' W 074°02'5 9.2
2017-Oct-15 18:00N 40°46' W 074°01'1 0.8
2017-Oct-15 17:20N 40°46' W 073°60'0 0.3
2017-Oct-15 16:59N 40°46' W 073°60'0 0.0
2017-Oct-15 16:29N 40°46' W 073°60'0 0.0
2017-Oct-15 15:59N 40°46' W 073°60'0 0.0
2017-Oct-15 15:29N 40°46' W 073°60'0 0.0
2017-Oct-15 14:56N 40°46' W 073°60'0 0.0
2017-Oct-15 13:59N 40°46' W 073°60'0 0.0
2017-Oct-15 13:26N 40°46' W 073°60'0 0.0
2017-Oct-15 12:59N 40°46' W 073°60'0 0.0
2017-Oct-15 12:29N 40°46' W 073°60'0 0.0
2017-Oct-15 12:00N 40°46' W 073°60'0 0.2
2017-Oct-15 11:30N 40°46' W 074°00'3 5.6
2017-Oct-15 11:00N 40°43' W 074°01'4 8.5
2017-Oct-15 10:31N 40°40' W 074°04'1 2.2
2017-Oct-15 10:00N 40°39' W 074°05'1 1.5
2017-Oct-15 09:30N 40°39' W 074°06'0 0.0
2017-Oct-15 09:00N 40°39' W 074°06'0 0.0
2017-Oct-15 08:30N 40°39' W 074°06'0 0.0
2017-Oct-15 08:00N 40°39' W 074°06'0 0.0
2017-Oct-15 07:30N 40°39' W 074°06'0 0.0
2017-Oct-15 07:00N 40°39' W 074°06'0 0.0
2017-Oct-15 06:30N 40°39' W 074°06'2 4.3
2017-Oct-15 06:00N 40°39' W 074°09'3 5.6
2017-Oct-15 05:31N 40°38' W 074°12'0 0.4
2017-Oct-15 05:00N 40°38' W 074°12'3 5.5
2017-Oct-15 04:30N 40°39' W 074°08'4 7.3
2017-Oct-15 04:00N 40°39' W 074°04'3 5.2
2017-Oct-15 03:30N 40°40' W 074°01'0 0.2
2017-Oct-15 03:00N 40°40' W 074°00'0 0.0
2017-Oct-15 02:30N 40°40' W 074°00'0 0.5
2017-Oct-15 02:00N 40°40' W 074°00'2 4.4
2017-Oct-15 01:31N 40°39' W 074°02'2 4.7
2017-Oct-15 01:01N 40°39' W 074°05'0 0.0
2017-Oct-15 00:31N 40°39' W 074°05'0 0.0
2017-Oct-15 00:00N 40°39' W 074°05'0 0.0
2017-Oct-14 23:30N 40°39' W 074°05'4 7.1
2017-Oct-14 23:00N 40°40' W 074°01'0 0.8
2017-Oct-14 22:31N 40°40' W 074°00'0 0.0
2017-Oct-14 22:00N 40°40' W 074°00'0 0.0
2017-Oct-14 21:30N 40°40' W 074°00'3 5.3
2017-Oct-14 21:00N 40°39' W 074°04'3 5.2
2017-Oct-14 20:30N 40°39' W 074°07'3 5.5
2017-Oct-14 20:00N 40°41' W 074°09'0 0.4
2017-Oct-14 19:30N 40°41' W 074°09'0 0.5
2017-Oct-14 18:53N 40°41' W 074°09'0 0.0
2017-Oct-14 18:29N 40°41' W 074°09'0 0.0
2017-Oct-14 17:59N 40°41' W 074°09'0 0.0
2017-Oct-14 17:29N 40°41' W 074°09'0 0.0
2017-Oct-14 16:59N 40°41' W 074°09'0 0.0
2017-Oct-14 16:26N 40°41' W 074°09'0 0.0
2017-Oct-14 15:59N 40°41' W 074°09'0 0.0
2017-Oct-14 15:26N 40°41' W 074°09'0 0.0
2017-Oct-14 14:56N 40°41' W 074°09'0 0.0
2017-Oct-14 14:23N 40°41' W 074°09'0 0.0
2017-Oct-14 13:59N 40°41' W 074°09'0 0.0
2017-Oct-14 13:29N 40°41' W 074°09'0 0.0
2017-Oct-14 12:59N 40°41' W 074°09'0 0.0
2017-Oct-14 12:26N 40°41' W 074°09'0 0.0
2017-Oct-14 11:59N 40°41' W 074°09'0 0.0
2017-Oct-14 11:29N 40°41' W 074°09'0 0.0
2017-Oct-14 10:53N 40°41' W 074°09'0 0.0
2017-Oct-14 10:26N 40°41' W 074°09'0 0.0
2017-Oct-14 09:56N 40°41' W 074°09'0 0.0
2017-Oct-14 09:29N 40°41' W 074°09'0 0.0
2017-Oct-14 08:59N 40°41' W 074°09'0 0.0
2017-Oct-14 08:26N 40°41' W 074°09'0 0.0
2017-Oct-14 07:59N 40°41' W 074°09'0 0.0
2017-Oct-14 07:29N 40°41' W 074°09'0 0.0
2017-Oct-14 06:59N 40°41' W 074°09'0 0.0
2017-Oct-14 06:20N 40°41' W 074°09'0 0.0
2017-Oct-14 05:59N 40°41' W 074°09'0 0.0
2017-Oct-14 05:29N 40°41' W 074°09'0 0.0
2017-Oct-14 04:59N 40°41' W 074°09'0 0.0
2017-Oct-14 04:29N 40°41' W 074°09'0 0.0
2017-Oct-14 03:59N 40°41' W 074°09'0 0.0
2017-Oct-14 03:11N 40°41' W 074°09'0 0.0
2017-Oct-14 02:53N 40°41' W 074°09'0 0.0
2017-Oct-14 02:23N 40°41' W 074°09'0 0.0
2017-Oct-14 01:59N 40°41' W 074°09'0 0.0
2017-Oct-14 01:29N 40°41' W 074°09'0 0.0
2017-Oct-14 00:59N 40°41' W 074°09'0 0.3
2017-Oct-14 00:31N 40°41' W 074°09'2 3.6
2017-Oct-14 00:00N 40°40' W 074°09'2 3.4
2017-Oct-13 23:30N 40°39' W 074°06'0 0.2
2017-Oct-13 23:00N 40°39' W 074°07'0 0.0
2017-Oct-13 22:31N 40°39' W 074°07'1 1.6
2017-Oct-13 22:00N 40°39' W 074°05'0 0.7
2017-Oct-13 21:24N 40°39' W 074°06'0 0.0
2017-Oct-13 21:00N 40°39' W 074°06'0 0.0
2017-Oct-13 20:27N 40°39' W 074°06'2 4.1
2017-Oct-13 20:00N 40°39' W 074°03'2 3.9
2017-Oct-13 19:30N 40°40' W 074°01'3 6.1
2017-Oct-13 19:01N 40°39' W 074°05'1 1.2
2017-Oct-13 18:27N 40°39' W 074°06'0 0.0
2017-Oct-13 18:00N 40°39' W 074°06'0 0.0
2017-Oct-13 17:30N 40°39' W 074°06'0 0.0
2017-Oct-13 17:00N 40°39' W 074°06'0 0.8
2017-Oct-13 16:30N 40°39' W 074°05'0 0.0
2017-Oct-13 16:00N 40°39' W 074°05'0 0.0
2017-Oct-13 14:55N 40°39' W 074°05'3 7.3
2017-Oct-13 14:30N 40°39' W 074°02'1 2.4
2017-Oct-13 13:59N 40°40' W 074°00'0 0.0
2017-Oct-13 13:22N 40°40' W 074°00'0 0.0
2017-Oct-13 12:58N 40°40' W 074°00'0 0.0
2017-Oct-13 12:28N 40°40' W 074°00'0 0.1
2017-Oct-13 11:58N 40°40' W 074°00'0 0.0
2017-Oct-13 11:28N 40°40' W 074°00'0 0.0
2017-Oct-13 10:52N 40°40' W 074°00'0 0.0
2017-Oct-13 10:28N 40°40' W 074°00'0 0.0
2017-Oct-13 09:58N 40°40' W 074°00'0 0.0
2017-Oct-13 09:28N 40°40' W 074°00'0 0.0
2017-Oct-13 08:58N 40°40' W 074°00'0 0.0
2017-Oct-13 08:28N 40°40' W 074°00'1 2.2
2017-Oct-13 08:00N 40°40' W 074°01'4 8.0
2017-Oct-13 07:30N 40°39' W 074°07'0 0.1
2017-Oct-13 07:00N 40°39' W 074°07'0 0.3
2017-Oct-13 06:30N 40°39' W 074°06'2 4.0
2017-Oct-13 06:00N 40°40' W 074°04'0 0.0
2017-Oct-13 05:29N 40°40' W 074°04'0 0.0
2017-Oct-13 04:59N 40°40' W 074°04'0 0.1
2017-Oct-13 04:30N 40°40' W 074°04'1 1.8
2017-Oct-13 04:00N 40°40' W 074°03'4 8.8
2017-Oct-13 03:30N 40°44' W 074°01'2 5.0
2017-Oct-13 03:00N 40°46' W 073°60'0 0.0
2017-Oct-13 02:25N 40°46' W 073°60'0 0.2
2017-Oct-13 01:55N 40°46' W 073°60'0 0.2
2017-Oct-13 01:28N 40°46' W 073°60'0 0.0
2017-Oct-13 00:55N 40°46' W 073°60'0 0.0
2017-Oct-13 00:22N 40°46' W 073°60'0 0.0
2017-Oct-12 23:55N 40°46' W 073°60'0 0.0
2017-Oct-12 23:28N 40°46' W 073°60'0 0.0
2017-Oct-12 22:55N 40°46' W 073°60'0 0.0
2017-Oct-12 22:28N 40°46' W 073°60'0 0.0
2017-Oct-12 21:52N 40°46' W 073°60'0 0.0
2017-Oct-12 21:28N 40°46' W 073°60'0 0.0
2017-Oct-12 21:00N 40°46' W 073°60'1 1.1
2017-Oct-12 20:30N 40°46' W 074°00'4 8.1
2017-Oct-12 20:00N 40°42' W 074°02'4 8.0
2017-Oct-12 19:30N 40°39' W 074°05'1 1.5
2017-Oct-12 19:00N 40°39' W 074°06'0 0.0
2017-Oct-12 18:26N 40°39' W 074°06'0 1.0
2017-Oct-12 18:00N 40°39' W 074°07'0 0.1
2017-Oct-12 17:25N 40°39' W 074°07'0 0.0
2017-Oct-12 16:58N 40°39' W 074°07'1 1.8
2017-Oct-12 16:30N 40°39' W 074°06'0 0.7
2017-Oct-12 16:00N 40°39' W 074°06'0 0.9
2017-Oct-12 15:28N 40°39' W 074°07'0 0.0
2017-Oct-12 15:00N 40°39' W 074°07'2 3.0
2017-Oct-12 14:30N 40°40' W 074°08'1 1.7
2017-Oct-12 14:00N 40°41' W 074°09'2 4.4
2017-Oct-12 13:30N 40°39' W 074°09'2 3.6
2017-Oct-12 13:00N 40°39' W 074°06'1 1.5
2017-Oct-12 12:30N 40°39' W 074°07'3 5.2
2017-Oct-12 12:00N 40°41' W 074°09'1 0.8
2017-Oct-12 11:19N 40°41' W 074°09'0 0.0
2017-Oct-12 10:59N 40°41' W 074°09'1 1.1
2017-Oct-12 10:29N 40°41' W 074°09'2 3.9
2017-Oct-12 10:00N 40°39' W 074°09'4 7.3
2017-Oct-12 09:30N 40°39' W 074°04'3 6.1
2017-Oct-12 09:00N 40°40' W 074°00'2 4.7
2017-Oct-12 08:30N 40°39' W 074°03'1 2.9
2017-Oct-12 08:00N 40°40' W 074°05'0 0.0
2017-Oct-12 07:29N 40°40' W 074°05'0 0.0
2017-Oct-12 06:53N 40°40' W 074°05'2 4.0
2017-Oct-12 06:30N 40°39' W 074°06'1 2.1
2017-Oct-12 06:00N 40°39' W 074°07'0 0.0
2017-Oct-12 05:30N 40°39' W 074°07'2 3.1
2017-Oct-12 05:00N 40°39' W 074°05'0 0.0
2017-Oct-12 04:22N 40°39' W 074°05'0 0.0
2017-Oct-12 03:58N 40°39' W 074°05'0 0.0
2017-Oct-12 03:31N 40°39' W 074°05'0 0.0
2017-Oct-12 02:58N 40°39' W 074°05'0 0.1
2017-Oct-12 02:30N 40°39' W 074°05'0 0.2
2017-Oct-12 02:00N 40°39' W 074°05'0 0.1
2017-Oct-12 01:30N 40°39' W 074°05'1 2.1
2017-Oct-12 01:00N 40°39' W 074°06'2 4.0
2017-Oct-12 00:30N 40°40' W 074°08'0 0.2
2017-Oct-12 00:00N 40°40' W 074°08'1 1.7
2017-Oct-11 23:30N 40°41' W 074°09'0 0.4
2017-Oct-11 23:00N 40°41' W 074°09'0 0.0
2017-Oct-11 22:30N 40°41' W 074°09'0 0.0
2017-Oct-11 22:00N 40°41' W 074°09'0 0.0
2017-Oct-11 21:30N 40°41' W 074°09'1 1.7
2017-Oct-11 20:59N 40°40' W 074°08'2 4.6
2017-Oct-11 20:30N 40°39' W 074°06'0 0.7
2017-Oct-11 19:56N 40°39' W 074°06'0 0.0
2017-Oct-11 19:26N 40°39' W 074°06'0 0.0
2017-Oct-11 18:56N 40°39' W 074°06'0 0.0
2017-Oct-11 18:29N 40°39' W 074°06'0 0.0
2017-Oct-11 17:59N 40°39' W 074°06'0 0.0
2017-Oct-11 17:26N 40°39' W 074°06'0 0.0
2017-Oct-11 16:59N 40°39' W 074°06'2 0.1
2017-Oct-11 00:00N 40°40' W 074°05'0 0.0
2017-Oct-10 23:30N 40°40' W 074°05'0 0.0
2017-Oct-10 23:00N 40°40' W 074°05'0 0.0
2017-Oct-10 22:30N 40°40' W 074°05'0 0.0
2017-Oct-10 22:00N 40°40' W 074°05'0 0.0
2017-Oct-10 21:30N 40°40' W 074°05'0 0.0
2017-Oct-10 21:00N 40°40' W 074°05'0 0.0
2017-Oct-10 20:30N 40°40' W 074°05'0 0.0
2017-Oct-10 20:00N 40°40' W 074°05'0 0.0
2017-Oct-10 19:30N 40°40' W 074°05'0 0.0
2017-Oct-10 19:00N 40°40' W 074°05'0 0.0
2017-Oct-10 18:30N 40°40' W 074°05'1 2.3
2017-Oct-10 18:00N 40°40' W 074°04'1 1.5
2017-Oct-10 17:30N 40°40' W 074°03'2 3.0
2017-Oct-10 17:00N 40°39' W 074°04'1 2.7
2017-Oct-10 16:29N 40°39' W 074°06'0 0.0
2017-Oct-10 16:01N 40°39' W 074°06'0 0.5
2017-Oct-10 15:30N 40°39' W 074°06'3 5.1
2017-Oct-10 15:00N 40°40' W 074°03'2 2.1
2017-Oct-10 13:59N 40°40' W 074°00'0 0.0
2017-Oct-10 13:29N 40°40' W 074°00'0 0.0
2017-Oct-10 12:59N 40°40' W 074°00'0 0.0
2017-Oct-10 12:28N 40°40' W 074°00'0 0.0
2017-Oct-10 11:58N 40°40' W 074°00'0 0.0
2017-Oct-10 11:28N 40°40' W 074°00'0 0.0
2017-Oct-10 10:58N 40°40' W 074°00'0 0.0
2017-Oct-10 10:28N 40°40' W 074°00'2 3.4
2017-Oct-10 10:01N 40°39' W 074°02'2 3.5
2017-Oct-10 09:30N 40°38' W 074°04'0 0.9
2017-Oct-10 09:01N 40°38' W 074°04'2 3.5
2017-Oct-10 08:31N 40°39' W 074°06'0 0.1
2017-Oct-10 07:58N 40°39' W 074°06'0 0.0
2017-Oct-10 07:28N 40°39' W 074°06'0 0.0
2017-Oct-10 06:58N 40°39' W 074°06'0 0.0
2017-Oct-10 06:28N 40°39' W 074°06'0 0.0
2017-Oct-10 05:58N 40°39' W 074°06'0 0.0
2017-Oct-10 05:28N 40°39' W 074°06'0 0.0
2017-Oct-10 04:58N 40°39' W 074°06'0 0.0
2017-Oct-10 04:28N 40°39' W 074°06'0 0.0
2017-Oct-10 03:58N 40°39' W 074°06'0 0.0
2017-Oct-10 03:28N 40°39' W 074°06'0 0.0
2017-Oct-10 02:58N 40°39' W 074°06'0 0.0
2017-Oct-10 02:19N 40°39' W 074°06'0 0.0
2017-Oct-10 01:58N 40°39' W 074°06'0 0.0
2017-Oct-10 01:28N 40°39' W 074°06'0 0.0
2017-Oct-10 00:58N 40°39' W 074°06'2 3.6
2017-Oct-10 00:30N 40°38' W 074°04'0 0.2
2017-Oct-10 00:01N 40°38' W 074°04'1 1.9
2017-Oct-09 23:30N 40°39' W 074°04'1 2.1
2017-Oct-09 22:58N 40°40' W 074°04'0 0.0
2017-Oct-09 22:28N 40°40' W 074°04'0 0.0
2017-Oct-09 21:58N 40°40' W 074°04'0 0.0
2017-Oct-09 21:28N 40°40' W 074°04'0 0.0
2017-Oct-09 20:58N 40°40' W 074°04'0 0.0
2017-Oct-09 20:28N 40°40' W 074°04'0 0.0
2017-Oct-09 19:58N 40°40' W 074°04'0 0.0
2017-Oct-09 19:28N 40°40' W 074°04'0 0.0
2017-Oct-09 18:58N 40°40' W 074°04'0 0.0
2017-Oct-09 18:28N 40°40' W 074°04'0 0.0
2017-Oct-09 17:58N 40°40' W 074°04'0 0.5
2017-Oct-09 17:30N 40°40' W 074°04'2 4.1
2017-Oct-09 17:00N 40°39' W 074°06'1 1.2
2017-Oct-09 16:29N 40°39' W 074°06'0 0.2
2017-Oct-09 16:00N 40°39' W 074°06'3 5.3
2017-Oct-09 15:30N 40°40' W 074°03'2 3.6
2017-Oct-09 14:58N 40°40' W 074°00'0 0.0
2017-Oct-09 14:28N 40°40' W 074°00'0 0.0
2017-Oct-09 13:58N 40°40' W 074°00'0 0.0
2017-Oct-09 13:28N 40°40' W 074°00'1 1.7
2017-Oct-09 13:00N 40°40' W 074°01'1 1.6
2017-Oct-09 12:30N 40°40' W 074°00'4 7.5
2017-Oct-09 12:00N 40°40' W 074°05'0 0.1
2017-Oct-09 11:30N 40°40' W 074°05'0 0.0
2017-Oct-09 11:00N 40°40' W 074°05'0 0.0
2017-Oct-09 10:30N 40°40' W 074°05'0 0.0
2017-Oct-09 10:00N 40°40' W 074°05'0 0.0
2017-Oct-09 09:30N 40°40' W 074°05'0 0.0
2017-Oct-09 08:57N 40°40' W 074°05'0 0.0
2017-Oct-09 08:30N 40°40' W 074°05'0 0.0
2017-Oct-09 08:00N 40°40' W 074°05'0 0.0
2017-Oct-09 07:30N 40°40' W 074°05'0 0.0
2017-Oct-09 07:01N 40°40' W 074°05'3 6.6
2017-Oct-09 06:31N 40°40' W 074°01'1 1.2
2017-Oct-09 05:59N 40°40' W 074°00'0 0.1
2017-Oct-09 05:29N 40°40' W 074°00'0 0.1
2017-Oct-09 04:59N 40°40' W 074°00'0 0.0
2017-Oct-09 04:29N 40°40' W 074°00'0 0.1
2017-Oct-09 03:59N 40°40' W 074°00'1 2.0
2017-Oct-09 03:30N 40°40' W 074°01'4 8.1
2017-Oct-09 03:00N 40°39' W 074°06'1 1.8
2017-Oct-09 02:31N 40°39' W 074°05'4 7.6
2017-Oct-09 02:01N 40°41' W 074°01'1 1.5
2017-Oct-09 01:28N 40°41' W 074°00'0 0.0
2017-Oct-09 00:58N 40°41' W 074°00'0 0.0
2017-Oct-09 00:28N 40°41' W 074°00'0 0.0
2017-Oct-08 23:58N 40°41' W 074°00'0 0.0
2017-Oct-08 23:28N 40°41' W 074°00'0 0.0
2017-Oct-08 22:58N 40°41' W 074°00'  

Dump ship's entire track history